Time;durP1;ratioP1;P1;durP2;ratioP2;P2;SDS_P1;SDS_P2;PMS_P1;PMS_P2;Temp;Humidity;BMP_temperature;BMP_pressure;BME280_temperature;BME280_humidity;BME280_pressure;Samples;Min_cycle;Max_cycle;Signal;HPM_P1;HPM_P2
2021/03/06 00:00:08;;;;;;;6.73;3.50;;;;;;;-3.19;71.50;97513.78;4862650;29;20506;-79
2021/03/06 00:02:34;;;;;;;6.60;3.17;;;;;;;-3.20;71.27;97512.13;4866288;29;20071;-79
2021/03/06 00:05:13;;;;;;;10.57;4.13;;;;;;;-3.16;71.22;97507.72;4881642;29;21097;-78
2021/03/06 00:07:40;;;;;;;6.40;3.50;;;;;;;-2.94;67.93;97503.66;4895939;29;20028;-80
2021/03/06 00:10:12;;;;;;;6.60;3.00;;;;;;;-3.04;69.08;97512.53;4880957;29;20511;-79
2021/03/06 00:12:39;;;;;;;7.00;2.93;;;;;;;-3.09;69.17;97509.22;4897312;29;20484;-79
2021/03/06 00:15:07;;;;;;;6.97;2.90;;;;;;;-3.12;69.55;97499.03;4880551;29;20460;-79
2021/03/06 00:17:33;;;;;;;8.02;3.30;;;;;;;-3.19;69.66;97503.50;4880773;29;20488;-79
2021/03/06 00:19:59;;;;;;;6.63;3.17;;;;;;;-3.21;70.11;97505.28;4886137;29;20025;-78
2021/03/06 00:22:25;;;;;;;8.17;3.43;;;;;;;-3.30;70.66;97508.13;4873054;29;20037;-79
2021/03/06 00:24:57;;;;;;;6.07;3.13;;;;;;;-3.21;69.46;97502.72;4881118;29;20120;-79
2021/03/06 00:27:23;;;;;;;5.35;2.67;;;;;;;-3.23;69.72;97503.63;4881058;29;20044;-78
2021/03/06 00:29:49;;;;;;;7.73;3.70;;;;;;;-3.30;70.37;97502.13;4883309;29;20037;-79
2021/03/06 00:32:15;;;;;;;7.70;3.00;;;;;;;-3.42;71.72;97506.75;4881136;29;20473;-78
2021/03/06 00:34:41;;;;;;;8.27;3.50;;;;;;;-3.37;71.43;97514.31;4884675;29;20032;-79
2021/03/06 00:37:06;;;;;;;6.87;3.27;;;;;;;-3.47;72.06;97502.59;4897312;29;20488;-79
2021/03/06 00:39:32;;;;;;;5.93;3.20;;;;;;;-3.51;71.95;97501.84;4894250;29;20036;-79
2021/03/06 00:42:02;;;;;;;6.57;3.33;;;;;;;-3.54;73.06;97501.09;4869113;29;20037;-79
2021/03/06 00:44:28;;;;;;;5.47;2.80;;;;;;;-3.53;71.70;97507.91;4886372;29;20048;-79
2021/03/06 00:46:54;;;;;;;6.47;3.07;;;;;;;-3.47;72.15;97502.59;4900264;29;21145;-79
2021/03/06 00:49:20;;;;;;;7.73;3.57;;;;;;;-3.58;73.26;97508.88;4884675;29;20028;-79
2021/03/06 00:51:46;;;;;;;6.33;3.07;;;;;;;-3.64;73.49;97510.78;4884060;29;20176;-78
2021/03/06 00:54:17;;;;;;;7.20;3.33;;;;;;;-3.73;74.32;97509.28;4901490;29;20513;-78
2021/03/06 00:56:43;;;;;;;7.97;3.30;;;;;;;-3.76;74.73;97511.94;4899574;29;20477;-79
2021/03/06 00:59:10;;;;;;;7.50;3.47;;;;;;;-3.78;74.58;97513.72;4883546;29;20463;-79
2021/03/06 01:01:37;;;;;;;8.37;3.50;;;;;;;-3.78;74.59;97512.88;4884074;29;20476;-79
2021/03/06 01:04:03;;;;;;;8.80;3.80;;;;;;;-3.83;74.55;97512.97;4900032;29;20464;-79
2021/03/06 01:06:29;;;;;;;6.87;3.50;;;;;;;-3.78;75.02;97511.16;4876298;29;20040;-79
2021/03/06 01:08:55;;;;;;;7.33;4.13;;;;;;;-3.85;74.58;97507.06;4884375;29;20394;-79
2021/03/06 01:11:20;;;;;;;8.30;3.40;;;;;;;-3.77;74.26;97515.41;4872628;29;20503;-78
2021/03/06 01:13:46;;;;;;;7.00;3.47;;;;;;;-3.85;74.50;97502.75;4874503;29;20060;-79
2021/03/06 01:16:12;;;;;;;7.23;3.60;;;;;;;-3.87;74.81;97503.66;4876008;29;20116;-79
2021/03/06 01:18:37;;;;;;;6.53;3.17;;;;;;;-3.89;74.77;97496.00;4880242;29;20069;-78
2021/03/06 01:21:03;;;;;;;7.97;4.07;;;;;;;-3.88;74.82;97500.25;4884236;29;20059;-79
2021/03/06 01:23:29;;;;;;;8.30;3.63;;;;;;;-3.93;74.66;97498.69;4868563;29;20040;-79
2021/03/06 01:25:55;;;;;;;7.27;3.40;;;;;;;-3.96;74.76;97494.47;4876163;29;20445;-79
2021/03/06 01:28:20;;;;;;;7.00;3.53;;;;;;;-3.92;75.05;97492.69;4885170;29;20029;-79
2021/03/06 01:30:46;;;;;;;6.47;3.40;;;;;;;-4.00;75.24;97499.72;4884627;29;20020;-79
2021/03/06 01:33:12;;;;;;;8.07;3.87;;;;;;;-4.01;75.09;97503.19;4884136;29;20047;-79
2021/03/06 01:35:37;;;;;;;6.73;3.17;;;;;;;-4.05;75.53;97502.41;4873847;29;20395;-79
2021/03/06 01:38:04;;;;;;;7.10;3.43;;;;;;;-4.05;75.12;97498.13;4867693;29;20036;-79
2021/03/06 01:40:34;;;;;;;7.43;3.53;;;;;;;-4.03;75.08;97501.47;4899270;29;20044;-78
2021/03/06 01:43:04;;;;;;;6.68;3.65;;;;;;;-4.08;74.82;97500.75;4881543;29;20475;-79
2021/03/06 01:45:30;;;;;;;6.18;3.40;;;;;;;-4.01;74.82;97500.63;4895358;29;20037;-79
2021/03/06 01:47:56;;;;;;;9.83;3.70;;;;;;;-3.99;74.60;97503.97;4873188;29;20020;-79
2021/03/06 01:50:27;;;;;;;7.63;3.43;;;;;;;-4.22;75.26;97495.13;4883915;29;20044;-79
2021/03/06 01:52:52;;;;;;;8.23;3.50;;;;;;;-4.15;75.26;97501.81;4883217;29;20491;-79
2021/03/06 01:55:22;;;;;;;6.93;3.53;;;;;;;-4.20;74.80;97498.50;4883711;29;20452;-78
2021/03/06 01:57:48;;;;;;;8.45;3.67;;;;;;;-4.26;75.80;97501.22;4860335;29;20041;-79
2021/03/06 02:00:15;;;;;;;6.50;3.40;;;;;;;-4.26;75.42;97493.50;4871788;29;20049;-79
2021/03/06 02:02:42;;;;;;;6.10;3.35;;;;;;;-4.33;75.45;97487.66;4881880;29;20477;-79
2021/03/06 02:05:08;;;;;;;5.90;3.20;;;;;;;-4.29;75.31;97485.91;4875774;29;20100;-79
2021/03/06 02:07:34;;;;;;;7.05;3.47;;;;;;;-4.34;75.24;97486.00;4868488;29;20029;-78
2021/03/06 02:10:02;;;;;;;7.07;3.63;;;;;;;-4.33;74.99;97490.25;4886015;29;20497;-79
2021/03/06 02:12:40;;;;;;;9.60;3.50;;;;;;;-4.29;75.13;97483.34;4882451;29;20127;-79
2021/03/06 02:15:12;;;;;;;7.60;3.95;;;;;;;-4.25;74.93;97474.66;4882837;29;20064;-79
2021/03/06 02:17:59;;;;;;;5.68;3.53;;;;;;;-4.36;75.19;97477.50;4893082;29;20550;-78
2021/03/06 02:20:47;;;;;;;5.70;2.92;;;;;;;-4.35;75.08;97473.22;4882839;29;20044;-78
2021/03/06 02:23:40;;;;;;;8.23;3.78;;;;;;;-4.36;75.07;97479.19;4882713;29;20056;-78
2021/03/06 02:26:27;;;;;;;6.00;3.42;;;;;;;-4.37;75.62;97475.78;4893109;29;20812;-79
2021/03/06 02:29:37;;;;;;;6.45;3.60;;;;;;;-4.44;75.83;97464.00;4889465;29;20041;-79
2021/03/06 02:32:28;;;;;;;6.88;3.83;;;;;;;-4.46;75.80;97473.47;4882708;29;20461;-79
2021/03/06 02:35:06;;;;;;;7.68;3.30;;;;;;;-4.50;75.39;97472.69;4882343;29;20502;-79
2021/03/06 02:37:33;;;;;;;9.38;4.00;;;;;;;-4.46;75.65;97467.47;4883491;29;20040;-78
2021/03/06 02:40:02;;;;;;;6.85;3.58;;;;;;;-4.50;75.86;97475.25;4890412;29;20052;-78
2021/03/06 02:42:30;;;;;;;8.40;3.65;;;;;;;-4.51;75.64;97481.28;4881933;29;20036;-79
2021/03/06 02:44:57;;;;;;;8.00;3.30;;;;;;;-4.53;75.89;97475.34;4882306;29;20043;-79
2021/03/06 02:47:24;;;;;;;6.85;3.65;;;;;;;-4.52;75.96;97473.63;4882031;29;20063;-79
2021/03/06 02:49:57;;;;;;;7.85;4.05;;;;;;;-4.46;75.24;97464.91;4889729;29;20035;-78
2021/03/06 02:52:23;;;;;;;;;;;;;;;-4.55;76.01;97474.53;4882318;29;20047;-79
2021/03/06 02:54:49;;;;;;;6.93;3.50;;;;;;;-4.57;76.05;97473.72;4882174;29;19916;-79
2021/03/06 02:57:46;;;;;;;10.13;3.73;;;;;;;-4.62;75.78;97474.72;4881832;29;20487;-79
2021/03/06 03:00:42;;;;;;;5.65;3.38;;;;;;;-4.59;75.63;97462.66;4880307;29;20526;-79
2021/03/06 03:03:31;;;;;;;6.53;3.10;;;;;;;-4.62;75.35;97460.16;4881032;29;20741;-79
2021/03/06 03:05:56;;;;;;;8.30;3.90;;;;;;;-4.56;75.83;97465.16;4881138;29;20040;-79
2021/03/06 03:08:34;;;;;;;7.47;3.43;;;;;;;-4.60;75.50;97468.66;4881904;29;20036;-79
2021/03/06 03:11:03;;;;;;;8.32;3.90;;;;;;;-4.65;76.04;97469.66;4873662;29;20033;-79
2021/03/06 03:13:42;;;;;;;9.68;4.18;;;;;;;-4.58;76.15;97477.16;4865352;29;20036;-79
2021/03/06 03:16:18;;;;;;;8.25;4.00;;;;;;;-4.61;75.92;97471.25;4878292;29;20045;-79
2021/03/06 03:18:48;;;;;;;8.18;3.80;;;;;;;-4.53;75.72;97466.78;4896739;29;20080;-79
2021/03/06 03:21:19;;;;;;;7.07;3.60;;;;;;;-4.50;75.30;97471.84;4896819;29;20029;-78
2021/03/06 03:24:23;;;;;;;6.55;3.72;;;;;;;-4.64;75.65;97461.91;4881384;29;20028;-78
2021/03/06 03:26:50;;;;;;;7.57;3.97;;;;;;;-4.63;76.12;97468.72;4881843;29;20032;-79
2021/03/06 03:29:17;;;;;;;7.30;3.75;;;;;;;-4.64;76.31;97473.91;4884807;29;20051;-79
2021/03/06 03:31:47;;;;;;;8.18;4.07;;;;;;;-4.61;75.93;97474.66;4867369;29;20052;-79
2021/03/06 03:34:15;;;;;;;9.25;4.03;;;;;;;-4.67;76.19;97464.53;4876893;29;20040;-79
2021/03/06 03:36:41;;;;;;;8.98;4.55;;;;;;;-4.65;75.96;97467.09;4881155;29;20042;-79
2021/03/06 03:39:08;;;;;;;9.10;4.85;;;;;;;-4.67;76.22;97471.41;4881200;29;20050;-79
2021/03/06 03:41:35;;;;;;;12.35;6.75;;;;;;;-4.69;76.55;97473.16;4892038;29;20041;-77
2021/03/06 03:44:05;;;;;;;7.47;4.13;;;;;;;-4.67;75.85;97466.28;4881017;29;20079;-79
2021/03/06 03:46:32;;;;;;;7.95;4.38;;;;;;;-4.65;76.18;97475.63;4890591;29;20044;-79
2021/03/06 03:49:00;;;;;;;9.48;3.97;;;;;;;-4.61;76.02;97469.53;4878523;29;20059;-78
2021/03/06 03:51:26;;;;;;;7.18;4.05;;;;;;;-4.59;75.52;97472.09;4881038;29;20501;-79
2021/03/06 03:53:52;;;;;;;8.55;3.83;;;;;;;-4.62;75.15;97467.84;4898025;29;20039;-79
2021/03/06 03:56:18;;;;;;;6.47;3.60;;;;;;;-4.66;76.05;97475.66;4880868;29;20024;-79
2021/03/06 03:58:48;;;;;;;7.80;4.00;;;;;;;-4.65;76.43;97473.06;4880504;29;20024;-78
2021/03/06 04:01:14;;;;;;;7.45;4.00;;;;;;;-4.64;75.99;97472.16;4897250;29;20433;-79
2021/03/06 04:03:40;;;;;;;6.10;3.33;;;;;;;-4.62;75.86;97477.28;4865264;29;20513;-79
2021/03/06 04:06:06;;;;;;;7.23;4.00;;;;;;;-4.64;75.46;97479.88;4892570;29;20099;-79
2021/03/06 04:08:32;;;;;;;13.75;4.38;;;;;;;-4.62;75.36;97479.84;4867946;29;20097;-78
2021/03/06 04:10:58;;;;;;;9.43;3.80;;;;;;;-4.64;75.38;97487.56;4871215;29;20048;-79
2021/03/06 04:13:23;;;;;;;7.57;3.73;;;;;;;-4.63;75.63;97481.53;4900912;29;20043;-78
2021/03/06 04:15:49;;;;;;;7.30;3.93;;;;;;;-4.64;75.28;97473.91;4885559;29;20028;-79
2021/03/06 04:18:15;;;;;;;10.57;5.30;;;;;;;-4.59;75.37;97477.22;4891871;29;20033;-79
2021/03/06 04:20:40;;;;;;;6.40;3.63;;;;;;;-4.60;75.28;97481.47;4877561;29;20052;-79
2021/03/06 04:23:06;;;;;;;8.80;4.53;;;;;;;-4.52;75.05;97474.47;4885033;29;20092;-78
2021/03/06 04:25:32;;;;;;;9.37;4.80;;;;;;;-4.61;74.91;97479.81;4886032;29;20657;-79
2021/03/06 04:27:57;;;;;;;7.83;4.57;;;;;;;-4.58;74.75;97473.75;4883671;29;20036;-79
2021/03/06 04:30:24;;;;;;;10.23;4.53;;;;;;;-4.62;74.90;97478.13;4900801;29;20025;-79
2021/03/06 04:32:49;;;;;;;9.38;4.32;;;;;;;-4.69;74.99;97485.97;4899515;29;20519;-77
2021/03/06 04:35:15;;;;;;;10.43;4.57;;;;;;;-4.67;75.29;97482.50;4901393;29;20081;-78
2021/03/06 04:37:41;;;;;;;9.23;4.20;;;;;;;-4.63;74.85;97483.28;4876503;29;20044;-79
2021/03/06 04:40:09;;;;;;;7.78;4.18;;;;;;;-4.63;74.97;97489.25;4869085;29;20111;-79
2021/03/06 04:42:35;;;;;;;10.23;4.00;;;;;;;-4.73;75.35;97495.47;4869479;29;20065;-77
2021/03/06 04:45:02;;;;;;;7.47;4.32;;;;;;;-4.70;75.25;97494.56;4873352;29;20032;-78
2021/03/06 04:47:28;;;;;;;12.25;4.70;;;;;;;-4.84;75.56;97497.44;4902860;29;20024;-78
2021/03/06 04:49:54;;;;;;;8.67;4.17;;;;;;;-4.82;75.44;97506.81;4886418;29;20486;-78
2021/03/06 04:52:19;;;;;;;6.50;3.33;;;;;;;-4.83;75.56;97504.25;4903449;29;20033;-79
2021/03/06 04:54:45;;;;;;;8.93;4.30;;;;;;;-4.81;76.14;97499.94;4869486;29;20546;-79
2021/03/06 04:57:12;;;;;;;7.13;3.90;;;;;;;-4.90;75.94;97498.41;4894152;29;20143;-79
2021/03/06 04:59:42;;;;;;;6.55;3.85;;;;;;;-4.92;76.11;97497.63;4885707;29;20037;-79
2021/03/06 05:02:08;;;;;;;9.40;5.20;;;;;;;-4.86;75.83;97491.50;4885259;29;20040;-79
2021/03/06 05:04:34;;;;;;;8.93;5.43;;;;;;;-4.90;76.15;97498.41;4887360;29;20564;-78
2021/03/06 05:07:00;;;;;;;8.20;4.45;;;;;;;-4.94;76.31;97496.81;4885764;29;20037;-79
2021/03/06 05:09:26;;;;;;;9.83;4.03;;;;;;;-4.95;76.23;97489.16;4901824;29;20035;-78
2021/03/06 05:11:52;;;;;;;8.07;4.00;;;;;;;-4.92;75.36;97483.97;4884222;29;20546;-79
2021/03/06 05:14:18;;;;;;;8.10;4.57;;;;;;;-4.99;75.79;97491.78;4884061;29;20036;-79
2021/03/06 05:16:44;;;;;;;7.23;4.07;;;;;;;-4.92;75.57;97489.09;4879119;29;20107;-79
2021/03/06 05:19:10;;;;;;;8.13;4.10;;;;;;;-4.98;75.68;97490.06;4871698;29;20044;-78
2021/03/06 05:21:36;;;;;;;8.70;4.10;;;;;;;-4.99;76.16;97494.34;4890246;29;20083;-79
2021/03/06 05:24:03;;;;;;;8.87;4.33;;;;;;;-5.00;75.91;97505.50;4884306;29;20831;-78
2021/03/06 05:26:29;;;;;;;7.83;3.70;;;;;;;-5.00;75.45;97502.06;4856818;29;733584;-78
2021/03/06 05:28:54;;;;;;;7.27;4.07;;;;;;;-4.99;75.30;97499.47;4874044;29;20036;-80
2021/03/06 05:31:20;;;;;;;7.97;4.03;;;;;;;-4.99;75.42;97501.22;4902935;29;20040;-79
2021/03/06 05:33:46;;;;;;;9.73;3.93;;;;;;;-4.98;75.35;97508.03;4902732;29;20123;-79
2021/03/06 05:36:11;;;;;;;7.77;4.23;;;;;;;-5.00;75.67;97499.50;4901659;29;20084;-79
2021/03/06 05:38:37;;;;;;;8.33;4.00;;;;;;;-4.98;75.35;97501.16;4874156;29;20040;-79
2021/03/06 05:41:03;;;;;;;7.70;4.30;;;;;;;-4.98;75.47;97501.16;4903784;29;20048;-80
2021/03/06 05:43:28;;;;;;;8.07;4.00;;;;;;;-5.05;75.45;97502.19;4875727;29;20163;-81
2021/03/06 05:45:56;;;;;;;7.27;3.87;;;;;;;-4.95;74.90;97507.13;4881941;29;20040;-80
2021/03/06 05:48:21;;;;;;;6.68;3.70;;;;;;;-5.00;74.85;97502.94;4880221;29;20043;-80
2021/03/06 05:50:48;;;;;;;10.77;4.47;;;;;;;-4.90;76.00;97500.16;4883916;29;20036;-80
2021/03/06 05:53:15;;;;;;;7.18;3.88;;;;;;;-4.87;75.93;97497.50;4902228;29;20049;-80
2021/03/06 05:55:43;;;;;;;9.82;3.60;;;;;;;-4.80;74.85;97497.34;4885630;29;20048;-81
2021/03/06 05:58:09;;;;;;;7.10;4.00;;;;;;;-4.77;74.28;97493.88;4887872;29;20037;-80
2021/03/06 06:00:39;;;;;;;6.20;3.43;;;;;;;-4.77;73.75;97493.88;4893087;29;20039;-80
2021/03/06 06:03:05;;;;;;;8.30;4.00;;;;;;;-4.68;73.84;97497.97;4885123;29;20084;-79
2021/03/06 06:05:31;;;;;;;6.97;3.63;;;;;;;-4.67;74.53;97499.63;4870017;29;20043;-79
2021/03/06 06:07:57;;;;;;;9.68;4.05;;;;;;;-4.44;73.25;97499.09;4885126;29;20109;-79
2021/03/06 06:10:23;;;;;;;7.32;4.07;;;;;;;-4.09;71.83;97491.38;4882450;29;20025;-79
2021/03/06 06:12:51;;;;;;;7.93;4.90;;;;;;;-3.87;70.35;97493.38;4886944;29;20104;-79
2021/03/06 06:15:19;;;;;;;7.00;3.83;;;;;;;-3.37;68.71;97491.19;4889746;29;20467;-79
2021/03/06 06:17:45;;;;;;;8.68;3.83;;;;;;;-3.04;67.97;97485.94;4885548;29;20032;-80
2021/03/06 06:20:13;;;;;;;7.13;3.50;;;;;;;-2.86;65.95;97488.78;4882670;29;20047;-79
2021/03/06 06:22:39;;;;;;;5.38;3.17;;;;;;;-2.98;66.69;97496.06;4885600;29;20054;-80
2021/03/06 06:25:05;;;;;;;9.60;3.63;;;;;;;-2.56;65.04;97501.63;4905270;29;20550;-81
2021/03/06 06:27:32;;;;;;;7.33;3.57;;;;;;;-2.30;64.06;97502.53;4908126;29;20546;-80
2021/03/06 06:30:00;;;;;;;5.63;3.20;;;;;;;-2.06;63.31;97501.75;4887229;29;20457;-80
2021/03/06 06:32:46;;;;;;;7.60;3.07;;;;;;;-1.81;62.28;97504.34;4870145;29;20471;-80
2021/03/06 06:35:16;;;;;;;8.13;3.47;;;;;;;-1.86;63.02;97501.06;4895110;29;20461;-81
2021/03/06 06:38:02;;;;;;;6.53;3.27;;;;;;;-1.78;61.84;97500.81;4884243;29;20488;-78
2021/03/06 06:40:30;;;;;;;6.20;3.33;;;;;;;-1.84;61.19;97501.88;4883562;29;20465;-80
2021/03/06 06:42:58;;;;;;;7.10;3.50;;;;;;;-1.46;61.97;97505.69;4865648;29;20473;-80
2021/03/06 06:45:24;;;;;;;5.53;3.60;;;;;;;-1.42;60.43;97511.59;4837851;29;20890;-81
2021/03/06 06:47:52;;;;;;;6.50;3.40;;;;;;;-1.09;59.67;97511.28;4881108;29;20473;-81
2021/03/06 06:50:30;;;;;;;5.00;3.37;;;;;;;-1.30;59.62;97503.41;4896388;29;20468;-80
2021/03/06 06:52:56;;;;;;;5.63;3.10;;;;;;;-1.55;60.98;97508.59;4883823;29;20578;-80
2021/03/06 06:55:33;;;;;;;5.93;3.40;;;;;;;-1.40;61.03;97511.53;4866186;29;20651;-80
2021/03/06 06:57:59;;;;;;;6.47;3.70;;;;;;;-0.95;60.08;97507.28;4881916;29;20502;-80
2021/03/06 07:00:30;;;;;;;7.63;3.60;;;;;;;-1.15;60.74;97509.75;4882523;29;21081;-80
2021/03/06 07:02:58;;;;;;;5.53;3.17;;;;;;;-0.59;59.15;97511.94;4880825;29;20537;-80
2021/03/06 07:05:32;;;;;;;8.17;4.30;;;;;;;-0.49;58.87;97515.03;4862447;29;20457;-81
2021/03/06 07:08:03;;;;;;;6.00;3.30;;;;;;;-0.21;57.25;97513.91;4879785;29;20863;-81
2021/03/06 07:10:40;;;;;;;7.13;3.10;;;;;;;-0.55;58.18;97526.44;4873360;29;20045;-80
2021/03/06 07:13:11;;;;;;;9.13;4.23;;;;;;;0.05;56.72;97520.63;4879591;29;20505;-80
2021/03/06 07:15:52;;;;;;;7.37;3.13;;;;;;;-0.43;57.86;97516.53;4898379;29;20496;-80
2021/03/06 07:18:19;;;;;;;8.70;3.63;;;;;;;-1.02;59.99;97529.06;4873632;29;20588;-80
2021/03/06 07:20:46;;;;;;;7.37;4.10;;;;;;;-0.31;59.36;97521.19;4869829;29;20978;-79
2021/03/06 07:23:17;;;;;;;9.80;4.73;;;;;;;-0.66;58.87;97527.75;4882809;29;20479;-81
2021/03/06 07:25:54;;;;;;;41.10;18.70;;;;;;;0.41;57.27;97513.06;4873804;29;20469;-80
2021/03/06 07:28:21;;;;;;;11.70;5.23;;;;;;;0.43;55.71;97514.66;4890505;29;20480;-80
2021/03/06 07:30:54;;;;;;;21.10;11.20;;;;;;;0.84;54.77;97526.72;4882141;29;20510;-80
2021/03/06 07:33:21;;;;;;;8.37;4.87;;;;;;;0.02;57.77;97526.75;4874093;29;20545;-80
2021/03/06 07:35:48;;;;;;;7.17;3.10;;;;;;;0.57;54.91;97527.06;4880952;29;20464;-80
2021/03/06 07:38:18;;;;;;;6.30;3.03;;;;;;;0.75;55.74;97530.59;4883173;29;20500;-80
2021/03/06 07:40:55;;;;;;;5.80;2.87;;;;;;;1.03;55.53;97529.34;4881611;29;20517;-79
2021/03/06 07:43:31;;;;;;;5.67;2.70;;;;;;;0.12;56.84;97535.81;4879796;29;20511;-81
2021/03/06 07:45:58;;;;;;;6.87;2.87;;;;;;;1.47;54.10;97536.84;4874583;29;20551;-80
2021/03/06 07:48:26;;;;;;;6.90;3.00;;;;;;;1.05;54.54;97545.69;4880861;29;20990;-79
2021/03/06 07:50:53;;;;;;;5.47;3.23;;;;;;;1.55;54.10;97538.19;4881774;29;20468;-81
2021/03/06 07:53:20;;;;;;;9.13;3.10;;;;;;;2.40;51.74;97534.94;4880443;29;20461;-81
2021/03/06 07:55:47;;;;;;;5.97;2.63;;;;;;;1.92;51.61;97546.81;4880945;29;20804;-80
2021/03/06 07:58:13;;;;;;;6.83;2.90;;;;;;;1.87;52.52;97546.19;4874422;29;20469;-80
2021/03/06 08:00:59;;;;;;;7.77;2.90;;;;;;;1.87;53.29;97541.81;4896824;29;21022;-80
2021/03/06 08:03:27;;;;;;;6.30;2.93;;;;;;;2.21;51.58;97549.72;4896350;29;20080;-81
2021/03/06 08:05:55;;;;;;;4.63;2.60;;;;;;;1.82;50.70;97548.16;4886212;29;20461;-80
2021/03/06 08:08:33;;;;;;;5.63;2.70;;;;;;;2.19;50.53;97549.81;4893650;29;20493;-80
2021/03/06 08:11:14;;;;;;;6.07;2.50;;;;;;;2.64;51.01;97539.81;4873517;29;20904;-81
2021/03/06 08:13:43;;;;;;;4.63;2.60;;;;;;;2.57;50.71;97537.50;4871805;29;20465;-81
2021/03/06 08:16:24;;;;;;;7.70;2.60;;;;;;;1.44;51.12;97543.00;4897525;29;20457;-81
2021/03/06 08:18:53;;;;;;;7.03;3.20;;;;;;;1.37;52.05;97547.63;4869702;29;20484;-79
2021/03/06 08:21:36;;;;;;;5.87;2.77;;;;;;;2.05;50.70;97536.69;4866272;29;20453;-80
2021/03/06 08:26:43;;;;;;;5.77;2.87;;;;;;;2.70;49.13;97537.75;4896374;29;20037;-82
2021/03/06 08:29:21;;;;;;;4.97;2.40;;;;;;;2.32;49.67;97539.69;4870836;29;20532;-80
2021/03/06 08:31:58;;;;;;;5.60;2.70;;;;;;;1.88;51.18;97547.88;4871161;29;20473;-79
2021/03/06 08:34:34;;;;;;;7.57;3.30;;;;;;;1.76;50.89;97556.25;4881933;29;21002;-80
2021/03/06 08:37:12;;;;;;;6.50;2.67;;;;;;;3.63;48.06;97534.53;4881060;29;20496;-79
2021/03/06 08:39:51;;;;;;;5.33;2.40;;;;;;;2.85;47.83;97536.13;4895434;29;20468;-80
2021/03/06 08:42:19;;;;;;;6.93;3.57;;;;;;;3.09;47.54;97539.19;4881882;29;20477;-81
2021/03/06 08:44:46;;;;;;;5.27;2.80;;;;;;;3.45;47.97;97533.75;4880888;29;20520;-81
2021/03/06 08:47:20;;;;;;;6.60;2.43;;;;;;;3.51;46.01;97541.22;4878895;29;20497;-79
2021/03/06 08:49:52;;;;;;;5.63;2.60;;;;;;;3.47;47.53;97534.53;4893114;29;20476;-76
2021/03/06 08:52:19;;;;;;;4.33;2.90;;;;;;;3.49;46.85;97539.66;4882356;29;21014;-81
2021/03/06 08:54:44;;;;;;;9.27;3.33;;;;;;;3.02;46.57;97543.88;4893004;29;20480;-78
2021/03/06 08:57:26;;;;;;;5.50;2.90;;;;;;;3.41;46.75;97553.06;4867660;29;20507;-80
2021/03/06 08:59:53;;;;;;;6.37;2.60;;;;;;;3.54;46.41;97545.44;4892075;29;20036;-81
2021/03/06 09:02:30;;;;;;;6.10;2.37;;;;;;;4.00;46.73;97542.91;4882234;29;21022;-79
2021/03/06 09:05:21;;;;;;;4.27;2.17;;;;;;;4.25;45.86;97537.94;4886535;29;20525;-80
2021/03/06 09:07:49;;;;;;;4.27;2.00;;;;;;;3.70;45.70;97532.44;4883883;29;20460;-79
2021/03/06 09:10:20;;;;;;;5.20;2.27;;;;;;;4.25;44.94;97537.13;4882464;29;20500;-80
2021/03/06 09:12:48;;;;;;;4.80;2.50;;;;;;;3.15;47.02;97538.00;4889335;29;20491;-79
2021/03/06 09:15:34;;;;;;;3.93;2.20;;;;;;;3.99;44.39;97544.66;4866429;29;20464;-79
2021/03/06 09:18:01;;;;;;;4.10;2.07;;;;;;;3.92;45.22;97545.94;4884936;29;20484;-81
2021/03/06 09:20:29;;;;;;;4.43;2.20;;;;;;;4.13;44.70;97535.25;4881032;29;20479;-80
2021/03/06 09:23:01;;;;;;;6.60;2.93;;;;;;;3.82;44.74;97538.72;4863598;29;20485;-80
2021/03/06 09:25:40;;;;;;;5.53;2.47;;;;;;;3.94;44.86;97538.03;4865479;29;20123;-81
2021/03/06 09:28:11;;;;;;;7.50;2.77;;;;;;;3.80;44.45;97544.00;4881892;29;20561;-80
2021/03/06 09:30:41;;;;;;;5.90;2.50;;;;;;;3.07;45.19;97541.84;4885871;29;20473;-80
2021/03/06 09:33:23;;;;;;;5.37;2.57;;;;;;;3.60;46.70;97539.06;4901770;29;20484;-80
2021/03/06 09:36:01;;;;;;;5.40;2.40;;;;;;;3.22;46.04;97541.97;4886393;29;20484;-81
2021/03/06 09:38:27;;;;;;;8.07;3.53;;;;;;;3.94;44.83;97533.66;4876585;29;20500;-82
2021/03/06 09:40:53;;;;;;;7.07;2.93;;;;;;;3.29;45.88;97531.16;4880465;29;20937;-80
2021/03/06 09:43:34;;;;;;;4.37;2.43;;;;;;;3.51;45.50;97533.44;4881132;29;20040;-78
2021/03/06 09:46:02;;;;;;;6.77;2.70;;;;;;;3.29;45.20;97540.72;4865158;29;20036;-81
2021/03/06 09:48:29;;;;;;;14.37;6.40;;;;;;;3.75;44.58;97535.59;4883244;29;20476;-80
2021/03/06 09:50:58;;;;;;;5.03;2.83;;;;;;;4.24;43.05;97530.25;4895229;29;20477;-80
2021/03/06 09:53:27;;;;;;;6.03;2.60;;;;;;;4.23;44.36;97536.38;4879216;29;20487;-81
2021/03/06 09:56:29;;;;;;;16.73;7.03;;;;;;;4.81;43.45;97534.75;4879966;29;20454;-80
2021/03/06 09:59:03;;;;;;;5.37;2.80;;;;;;;4.82;44.04;97536.41;4851523;29;20700;-80
2021/03/06 10:01:39;;;;;;;8.87;4.37;;;;;;;5.43;41.89;97533.53;4889184;29;20041;-80
2021/03/06 10:04:18;;;;;;;4.83;2.43;;;;;;;3.41;44.74;97534.84;4875792;29;20738;-80
2021/03/06 10:06:47;;;;;;;5.70;2.60;;;;;;;4.61;43.06;97531.53;4899205;29;20063;-80
2021/03/06 10:09:14;;;;;;;5.47;2.40;;;;;;;4.97;42.45;97531.13;4884118;29;20935;-79
2021/03/06 10:11:42;;;;;;;5.83;2.40;;;;;;;4.32;44.89;97528.03;4866443;29;20047;-80
2021/03/06 10:14:10;;;;;;;6.63;2.63;;;;;;;4.23;44.20;97528.56;4877889;29;20043;-80
2021/03/06 10:16:57;;;;;;;5.50;2.60;;;;;;;4.65;44.45;97521.78;4903353;29;20371;-79
2021/03/06 10:19:27;;;;;;;4.80;2.43;;;;;;;4.91;42.29;97528.88;4888104;29;20048;-81
2021/03/06 10:22:02;;;;;;;4.90;2.00;;;;;;;4.28;41.87;97541.31;4891341;29;20043;-81
2021/03/06 10:24:29;;;;;;;5.60;2.27;;;;;;;4.04;43.11;97538.34;4885214;29;20040;-80
2021/03/06 10:26:57;;;;;;;5.87;2.17;;;;;;;4.10;42.77;97525.84;4885523;29;20529;-80
2021/03/06 10:29:24;;;;;;;4.20;2.10;;;;;;;5.32;40.78;97528.13;4885614;29;20035;-80
2021/03/06 10:32:10;;;;;;;4.30;2.30;;;;;;;3.98;42.77;97535.16;4895241;29;20119;-81
2021/03/06 10:34:37;;;;;;;4.93;1.97;;;;;;;4.80;41.39;97531.31;4883384;29;20059;-79
2021/03/06 10:37:05;;;;;;;4.90;2.07;;;;;;;4.14;42.71;97542.94;4898383;29;20029;-80
2021/03/06 10:39:32;;;;;;;6.20;2.23;;;;;;;3.91;42.54;97528.63;4874649;29;20037;-80
2021/03/06 10:41:58;;;;;;;5.07;1.90;;;;;;;3.99;42.21;97542.06;4888346;29;20107;-80
2021/03/06 10:44:25;;;;;;;5.23;2.17;;;;;;;4.30;42.70;97527.28;4882273;29;20143;-77
2021/03/06 10:46:58;;;;;;;4.33;2.03;;;;;;;4.33;42.04;97524.50;4865280;29;20463;-81
2021/03/06 10:49:44;;;;;;;5.43;2.33;;;;;;;5.26;42.11;97522.44;4867124;29;20036;-79
2021/03/06 10:52:36;;;;;;;5.23;2.20;;;;;;;4.90;42.16;97534.19;4883301;29;20055;-79
2021/03/06 10:55:04;;;;;;;3.43;2.07;;;;;;;5.41;41.92;97534.53;4881420;29;20060;-80
2021/03/06 10:57:30;;;;;;;3.47;2.10;;;;;;;5.55;40.11;97536.28;4893851;29;20031;-80
2021/03/06 10:59:56;;;;;;;5.43;2.10;;;;;;;5.17;40.43;97536.91;4884167;29;20036;-79
2021/03/06 11:02:28;;;;;;;4.23;2.23;;;;;;;5.84;39.97;97527.47;4869878;29;20044;-81
2021/03/06 11:05:13;;;;;;;3.65;1.83;;;;;;;5.97;38.56;97529.28;4884198;29;20065;-80
2021/03/06 11:07:39;;;;;;;5.27;2.50;;;;;;;6.49;38.47;97523.28;4890785;29;20762;-78
2021/03/06 11:10:05;;;;;;;4.57;2.07;;;;;;;6.22;37.85;97526.78;4868668;29;20053;-80
2021/03/06 11:12:31;;;;;;;4.17;2.20;;;;;;;4.86;40.30;97520.50;4888391;29;20032;-78
2021/03/06 11:15:15;;;;;;;19.87;7.87;;;;;;;6.14;38.54;97529.06;4885703;29;20032;-78
2021/03/06 11:17:42;;;;;;;7.00;2.67;;;;;;;6.09;36.92;97525.91;4879741;29;20140;-79
2021/03/06 11:20:11;;;;;;;4.27;2.13;;;;;;;6.14;36.80;97514.22;4871441;29;20044;-80
2021/03/06 11:22:37;;;;;;;4.57;1.90;;;;;;;5.60;37.15;97508.13;4883794;29;20837;-79
2021/03/06 11:25:06;;;;;;;8.37;2.03;;;;;;;6.28;36.64;97510.69;4901347;29;20048;-80
2021/03/06 11:27:55;;;;;;;4.50;2.10;;;;;;;5.83;36.52;97510.09;4869145;29;20032;-80
2021/03/06 11:30:50;;;;;;;5.43;2.40;;;;;;;5.86;35.99;97498.63;4881148;29;20509;-80
2021/03/06 11:33:16;;;;;;;;;;;;;;;6.82;34.88;97489.63;4875207;29;20052;-80
2021/03/06 11:35:43;;;;;;;3.43;2.07;;;;;;;5.90;33.23;97511.41;4866379;29;19958;-80
2021/03/06 11:38:11;;;;;;;4.23;1.80;;;;;;;5.27;35.62;97485.84;4894563;29;20407;-80
2021/03/06 11:40:43;;;;;;;5.20;2.37;;;;;;;6.46;34.64;97484.28;4867605;29;20025;-82
2021/03/06 11:43:09;;;;;;;6.37;2.20;;;;;;;6.26;34.56;97481.22;4865830;29;20049;-81
2021/03/06 11:45:35;;;;;;;3.83;2.07;;;;;;;6.19;33.95;97493.03;4884894;29;20032;-80
2021/03/06 11:48:01;;;;;;;2.77;1.33;;;;;;;6.64;34.06;97474.34;4869177;29;20080;-81
2021/03/06 11:50:29;;;;;;;3.67;1.90;;;;;;;6.48;33.73;97479.81;4865737;29;20044;-81
2021/03/06 11:52:56;;;;;;;2.60;1.77;;;;;;;6.14;33.81;97475.06;4884112;29;20624;-78